sensor_id;sensor_type;location;lat;lon;timestamp;pressure;altitude;pressure_sealevel;temperature;humidity
788;BME280;16074;42.708;23.312;2022-08-20T00:02:12;144449.38;;;25.31;52.80
788;BME280;16074;42.708;23.312;2022-08-20T00:04:42;144459.16;;;25.35;52.96
788;BME280;16074;42.708;23.312;2022-08-20T00:07:12;144437.19;;;25.26;53.17
788;BME280;16074;42.708;23.312;2022-08-20T00:09:40;144420.09;;;25.19;53.24
788;BME280;16074;42.708;23.312;2022-08-20T00:12:10;144439.63;;;25.27;53.31
788;BME280;16074;42.708;23.312;2022-08-20T00:14:38;144427.41;;;25.22;53.20
788;BME280;16074;42.708;23.312;2022-08-20T00:17:07;144415.22;;;25.17;53.43
788;BME280;16074;42.708;23.312;2022-08-20T00:19:35;144417.66;;;25.18;53.53
788;BME280;16074;42.708;23.312;2022-08-20T00:22:05;144405.41;;;25.13;54.24
788;BME280;16074;42.708;23.312;2022-08-20T00:24:33;144406.66;;;25.13;53.72
788;BME280;16074;42.708;23.312;2022-08-20T00:27:01;144405.41;;;25.13;53.89
788;BME280;16074;42.708;23.312;2022-08-20T00:29:29;144394.44;;;25.08;53.87
788;BME280;16074;42.708;23.312;2022-08-20T00:31:58;144393.22;;;25.08;54.06
788;BME280;16074;42.708;23.312;2022-08-20T00:34:26;144379.81;;;25.02;54.27
788;BME280;16074;42.708;23.312;2022-08-20T00:36:55;144366.38;;;24.97;54.36
788;BME280;16074;42.708;23.312;2022-08-20T00:39:24;144377.38;;;25.01;54.40
788;BME280;16074;42.708;23.312;2022-08-20T00:41:52;144376.13;;;25.01;54.23
788;BME280;16074;42.708;23.312;2022-08-20T00:44:21;144349.34;;;24.90;54.84
788;BME280;16074;42.708;23.312;2022-08-20T00:46:51;144348.09;;;24.89;54.72
788;BME280;16074;42.708;23.312;2022-08-20T00:49:22;144345.66;;;24.88;54.98
788;BME280;16074;42.708;23.312;2022-08-20T00:51:55;144337.16;;;24.85;54.64
788;BME280;16074;42.708;23.312;2022-08-20T00:54:29;144327.38;;;24.81;55.04
788;BME280;16074;42.708;23.312;2022-08-20T00:57:00;144329.84;;;24.82;54.88
788;BME280;16074;42.708;23.312;2022-08-20T00:59:32;144327.38;;;24.81;54.58
788;BME280;16074;42.708;23.312;2022-08-20T01:02:01;144339.59;;;24.86;54.94
788;BME280;16074;42.708;23.312;2022-08-20T01:04:32;144318.81;;;24.77;54.98
788;BME280;16074;42.708;23.312;2022-08-20T01:07:03;144321.25;;;24.78;55.27
788;BME280;16074;42.708;23.312;2022-08-20T01:09:34;144321.25;;;24.78;55.01
788;BME280;16074;42.708;23.312;2022-08-20T01:12:23;144328.59;;;24.81;55.17
788;BME280;16074;42.708;23.312;2022-08-20T01:14:52;144327.38;;;24.81;55.57
788;BME280;16074;42.708;23.312;2022-08-20T01:17:23;144311.50;;;24.74;55.57
788;BME280;16074;42.708;23.312;2022-08-20T01:19:56;144295.69;;;24.68;55.66
788;BME280;16074;42.708;23.312;2022-08-20T01:22:31;144271.28;;;24.58;55.80
788;BME280;16074;42.708;23.312;2022-08-20T01:25:27;144271.28;;;24.58;55.98
788;BME280;16074;42.708;23.312;2022-08-20T01:27:58;144271.28;;;24.58;55.94
788;BME280;16074;42.708;23.312;2022-08-20T01:30:28;144263.97;;;24.55;56.12
788;BME280;16074;42.708;23.312;2022-08-20T01:32:59;144267.66;;;24.56;55.96
788;BME280;16074;42.708;23.312;2022-08-20T01:35:28;144262.78;;;24.54;56.14
788;BME280;16074;42.708;23.312;2022-08-20T01:37:56;144277.41;;;24.60;55.88
788;BME280;16074;42.708;23.312;2022-08-20T01:40:37;144251.78;;;24.50;56.34
788;BME280;16074;42.708;23.312;2022-08-20T01:43:13;144224.91;;;24.39;56.54
788;BME280;16074;42.708;23.312;2022-08-20T01:45:43;144235.91;;;24.43;56.70
788;BME280;16074;42.708;23.312;2022-08-20T01:48:14;144220.03;;;24.37;56.94
788;BME280;16074;42.708;23.312;2022-08-20T01:50:48;144224.91;;;24.39;57.05
788;BME280;16074;42.708;23.312;2022-08-20T01:53:24;144199.34;;;24.28;57.09
788;BME280;16074;42.708;23.312;2022-08-20T01:55:55;144200.56;;;24.29;57.19
788;BME280;16074;42.708;23.312;2022-08-20T01:58:24;144181.06;;;24.21;57.40
788;BME280;16074;42.708;23.312;2022-08-20T02:00:55;144162.75;;;24.14;57.65
788;BME280;16074;42.708;23.312;2022-08-20T02:03:24;144161.56;;;24.13;57.77
788;BME280;16074;42.708;23.312;2022-08-20T02:05:52;144155.44;;;24.11;58.12
788;BME280;16074;42.708;23.312;2022-08-20T02:08:20;144161.56;;;24.13;57.86
788;BME280;16074;42.708;23.312;2022-08-20T02:10:48;144166.44;;;24.15;57.80
788;BME280;16074;42.708;23.312;2022-08-20T02:13:17;144154.25;;;24.10;58.26
788;BME280;16074;42.708;23.312;2022-08-20T02:15:46;144140.88;;;24.05;58.23
788;BME280;16074;42.708;23.312;2022-08-20T02:18:14;144151.81;;;24.09;58.46
788;BME280;16074;42.708;23.312;2022-08-20T02:20:43;144142.06;;;24.05;58.38
788;BME280;16074;42.708;23.312;2022-08-20T02:23:13;144140.88;;;24.05;58.76
788;BME280;16074;42.708;23.312;2022-08-20T02:25:44;144151.81;;;24.09;58.48
788;BME280;16074;42.708;23.312;2022-08-20T02:28:16;144150.56;;;24.09;58.65
788;BME280;16074;42.708;23.312;2022-08-20T02:30:49;144143.31;;;24.06;58.70
788;BME280;16074;42.708;23.312;2022-08-20T02:33:20;144118.94;;;23.96;59.02
788;BME280;16074;42.708;23.312;2022-08-20T02:35:51;144125.00;;;23.98;58.88
788;BME280;16074;42.708;23.312;2022-08-20T02:38:23;144149.38;;;24.08;58.98
788;BME280;16074;42.708;23.312;2022-08-20T02:40:51;144121.38;;;23.97;59.06
788;BME280;16074;42.708;23.312;2022-08-20T02:43:19;144144.50;;;24.06;59.05
788;BME280;16074;42.708;23.312;2022-08-20T02:45:49;144128.69;;;24.00;59.48
788;BME280;16074;42.708;23.312;2022-08-20T02:48:19;144121.38;;;23.97;59.39
788;BME280;16074;42.708;23.312;2022-08-20T02:50:51;144104.31;;;23.90;59.83
788;BME280;16074;42.708;23.312;2022-08-20T02:53:21;144117.69;;;23.95;59.68
788;BME280;16074;42.708;23.312;2022-08-20T02:55:49;144094.56;;;23.86;60.13
788;BME280;16074;42.708;23.312;2022-08-20T02:58:19;144114.06;;;23.94;59.94
788;BME280;16074;42.708;23.312;2022-08-20T03:00:49;144101.84;;;23.89;59.83
788;BME280;16074;42.708;23.312;2022-08-20T03:03:17;144106.75;;;23.91;60.01
788;BME280;16074;42.708;23.312;2022-08-20T03:05:50;144097.00;;;23.87;60.04
788;BME280;16074;42.708;23.312;2022-08-20T03:08:19;144088.44;;;23.83;60.24
788;BME280;16074;42.708;23.312;2022-08-20T03:10:48;144079.94;;;23.80;60.60
788;BME280;16074;42.708;23.312;2022-08-20T03:13:17;144104.31;;;23.90;59.85
788;BME280;16074;42.708;23.312;2022-08-20T03:15:47;144097.00;;;23.87;60.14
788;BME280;16074;42.708;23.312;2022-08-20T03:18:24;144081.13;;;23.80;60.42
788;BME280;16074;42.708;23.312;2022-08-20T03:20:53;144078.72;;;23.79;60.36
788;BME280;16074;42.708;23.312;2022-08-20T03:23:23;144090.88;;;23.84;60.52
788;BME280;16074;42.708;23.312;2022-08-20T03:25:51;144071.38;;;23.76;61.12
788;BME280;16074;42.708;23.312;2022-08-20T03:28:19;144071.38;;;23.76;60.89
788;BME280;16074;42.708;23.312;2022-08-20T03:30:48;144053.06;;;23.69;60.90
788;BME280;16074;42.708;23.312;2022-08-20T03:33:17;144056.75;;;23.70;60.96
788;BME280;16074;42.708;23.312;2022-08-20T03:35:48;144067.69;;;23.75;61.20
788;BME280;16074;42.708;23.312;2022-08-20T03:38:17;144048.19;;;23.67;61.14
788;BME280;16074;42.708;23.312;2022-08-20T03:40:59;144026.25;;;23.58;61.49
788;BME280;16074;42.708;23.312;2022-08-20T03:43:28;144020.19;;;23.55;61.81
788;BME280;16074;42.708;23.312;2022-08-20T03:45:56;143982.44;;;23.40;62.71
788;BME280;16074;42.708;23.312;2022-08-20T03:48:24;143966.59;;;23.33;62.89
788;BME280;16074;42.708;23.312;2022-08-20T03:50:54;143967.81;;;23.34;63.22
788;BME280;16074;42.708;23.312;2022-08-20T03:53:23;143958.09;;;23.30;63.39
788;BME280;16074;42.708;23.312;2022-08-20T03:55:51;143986.09;;;23.41;62.92
788;BME280;16074;42.708;23.312;2022-08-20T03:58:28;143995.81;;;23.45;63.21
788;BME280;16074;42.708;23.312;2022-08-20T04:01:04;144011.63;;;23.52;63.60
788;BME280;16074;42.708;23.312;2022-08-20T04:03:34;144016.50;;;23.54;63.10
788;BME280;16074;42.708;23.312;2022-08-20T04:06:04;144034.81;;;23.61;63.17
788;BME280;16074;42.708;23.312;2022-08-20T04:08:32;144027.50;;;23.58;62.99
788;BME280;16074;42.708;23.312;2022-08-20T04:11:01;144042.13;;;23.64;62.80
788;BME280;16074;42.708;23.312;2022-08-20T04:13:29;144044.56;;;23.65;62.73
788;BME280;16074;42.708;23.312;2022-08-20T04:16:00;144071.38;;;23.76;62.60
788;BME280;16074;42.708;23.312;2022-08-20T04:18:29;144077.50;;;23.79;62.71
788;BME280;16074;42.708;23.312;2022-08-20T04:20:58;144095.75;;;23.86;62.30
788;BME280;16074;42.708;23.312;2022-08-20T04:23:28;144076.25;;;23.78;62.45
788;BME280;16074;42.708;23.312;2022-08-20T04:25:57;144095.75;;;23.86;62.36
788;BME280;16074;42.708;23.312;2022-08-20T04:28:27;144094.56;;;23.86;62.24
788;BME280;16074;42.708;23.312;2022-08-20T04:30:57;144087.25;;;23.83;62.53
788;BME280;16074;42.708;23.312;2022-08-20T04:33:27;144072.56;;;23.77;62.66
788;BME280;16074;42.708;23.312;2022-08-20T04:36:02;144036.00;;;23.62;63.25
788;BME280;16074;42.708;23.312;2022-08-20T04:38:33;144073.81;;;23.77;62.98
788;BME280;16074;42.708;23.312;2022-08-20T04:41:16;144054.31;;;23.69;62.84
788;BME280;16074;42.708;23.312;2022-08-20T04:43:50;144060.38;;;23.72;62.98
788;BME280;16074;42.708;23.312;2022-08-20T04:46:20;144065.25;;;23.74;63.30
788;BME280;16074;42.708;23.312;2022-08-20T04:48:49;144092.13;;;23.85;62.96
788;BME280;16074;42.708;23.312;2022-08-20T04:51:18;144086.00;;;23.82;62.76
788;BME280;16074;42.708;23.312;2022-08-20T04:53:52;144083.56;;;23.81;62.90
788;BME280;16074;42.708;23.312;2022-08-20T04:56:20;144116.50;;;23.95;62.24
788;BME280;16074;42.708;23.312;2022-08-20T04:58:51;144125.00;;;23.98;62.72
788;BME280;16074;42.708;23.312;2022-08-20T05:01:19;144114.06;;;23.94;62.35
788;BME280;16074;42.708;23.312;2022-08-20T05:03:48;144101.84;;;23.89;62.77
788;BME280;16074;42.708;23.312;2022-08-20T05:06:20;144125.00;;;23.98;62.96
788;BME280;16074;42.708;23.312;2022-08-20T05:08:51;144126.25;;;23.99;62.21
788;BME280;16074;42.708;23.312;2022-08-20T05:11:20;144154.25;;;24.10;62.66
788;BME280;16074;42.708;23.312;2022-08-20T05:14:03;144181.06;;;24.21;62.74
788;BME280;16074;42.708;23.312;2022-08-20T05:16:35;144204.22;;;24.30;62.40
788;BME280;16074;42.708;23.312;2022-08-20T05:19:09;144207.88;;;24.32;61.62
788;BME280;16074;42.708;23.312;2022-08-20T05:21:38;144239.53;;;24.45;61.64
788;BME280;16074;42.708;23.312;2022-08-20T05:24:08;144266.41;;;24.56;61.88
788;BME280;16074;42.708;23.312;2022-08-20T05:26:37;144283.47;;;24.63;61.41
788;BME280;16074;42.708;23.312;2022-08-20T05:29:05;144272.53;;;24.58;61.42
788;BME280;16074;42.708;23.312;2022-08-20T05:31:34;144318.81;;;24.77;60.76
788;BME280;16074;42.708;23.312;2022-08-20T05:34:05;144333.47;;;24.83;61.09
788;BME280;16074;42.708;23.312;2022-08-20T05:36:37;144355.41;;;24.92;60.73
788;BME280;16074;42.708;23.312;2022-08-20T05:39:07;144377.38;;;25.01;60.04
788;BME280;16074;42.708;23.312;2022-08-20T05:41:36;144405.41;;;25.13;60.15
788;BME280;16074;42.708;23.312;2022-08-20T05:44:05;144399.34;;;25.10;59.48
788;BME280;16074;42.708;23.312;2022-08-20T05:46:37;144396.91;;;25.09;59.74
788;BME280;16074;42.708;23.312;2022-08-20T05:49:06;144427.41;;;25.22;59.73
788;BME280;16074;42.708;23.312;2022-08-20T05:51:34;144432.28;;;25.24;59.69
788;BME280;16074;42.708;23.312;2022-08-20T05:54:04;144450.56;;;25.31;59.27
788;BME280;16074;42.708;23.312;2022-08-20T05:56:35;144470.09;;;25.39;58.82
788;BME280;16074;42.708;23.312;2022-08-20T05:59:05;144490.88;;;25.48;58.64
788;BME280;16074;42.708;23.312;2022-08-20T06:01:35;144483.53;;;25.45;58.46
788;BME280;16074;42.708;23.312;2022-08-20T06:04:05;144496.94;;;25.50;58.35
788;BME280;16074;42.708;23.312;2022-08-20T06:06:54;144527.44;;;25.62;58.69
788;BME280;16074;42.708;23.312;2022-08-20T06:09:24;144556.72;;;25.74;58.64
788;BME280;16074;42.708;23.312;2022-08-20T06:11:59;144575.06;;;25.82;58.01
788;BME280;16074;42.708;23.312;2022-08-20T06:14:29;144589.69;;;25.88;57.60
788;BME280;16074;42.708;23.312;2022-08-20T06:17:05;144640.97;;;26.09;57.28
788;BME280;16074;42.708;23.312;2022-08-20T06:19:35;144651.94;;;26.13;56.70
788;BME280;16074;42.708;23.312;2022-08-20T06:22:05;144694.69;;;26.31;56.35
788;BME280;16074;42.708;23.312;2022-08-20T06:24:48;144719.06;;;26.41;56.45
788;BME280;16074;42.708;23.312;2022-08-20T06:27:18;144750.88;;;26.54;55.97
788;BME280;16074;42.708;23.312;2022-08-20T06:29:46;144780.19;;;26.66;55.91
788;BME280;16074;42.708;23.312;2022-08-20T06:32:15;144783.84;;;26.67;54.45
788;BME280;16074;42.708;23.312;2022-08-20T06:34:43;144763.09;;;26.59;55.35
788;BME280;16074;42.708;23.312;2022-08-20T06:37:18;144783.84;;;26.67;55.06
788;BME280;16074;42.708;23.312;2022-08-20T06:39:47;144792.41;;;26.71;55.24
788;BME280;16074;42.708;23.312;2022-08-20T06:42:16;144805.81;;;26.76;54.68
788;BME280;16074;42.708;23.312;2022-08-20T06:44:47;144829.06;;;26.85;54.87
788;BME280;16074;42.708;23.312;2022-08-20T06:47:17;144863.22;;;26.99;54.41
788;BME280;16074;42.708;23.312;2022-08-20T06:49:46;144899.91;;;27.14;54.65
788;BME280;16074;42.708;23.312;2022-08-20T06:52:15;144930.44;;;27.27;54.14
788;BME280;16074;42.708;23.312;2022-08-20T06:54:44;144919.47;;;27.22;54.05
788;BME280;16074;42.708;23.312;2022-08-20T06:57:13;144951.25;;;27.35;53.29
788;BME280;16074;42.708;23.312;2022-08-20T06:59:42;144962.22;;;27.40;53.17
788;BME280;16074;42.708;23.312;2022-08-20T07:02:19;145028.22;;;27.67;53.30
788;BME280;16074;42.708;23.312;2022-08-20T07:04:56;145060.00;;;27.80;53.25
788;BME280;16074;42.708;23.312;2022-08-20T07:07:25;145088.16;;;27.91;52.46
788;BME280;16074;42.708;23.312;2022-08-20T07:09:58;145111.34;;;28.00;51.49
788;BME280;16074;42.708;23.312;2022-08-20T07:12:26;145121.13;;;28.04;51.64
788;BME280;16074;42.708;23.312;2022-08-20T07:14:56;145163.91;;;28.22;51.23
788;BME280;16074;42.708;23.312;2022-08-20T07:17:24;145195.75;;;28.35;51.24
788;BME280;16074;42.708;23.312;2022-08-20T07:19:52;145241.00;;;28.53;50.53
788;BME280;16074;42.708;23.312;2022-08-20T07:22:20;145330.31;;;28.90;50.21
788;BME280;16074;42.708;23.312;2022-08-20T07:24:48;145373.13;;;29.07;49.62
788;BME280;16074;42.708;23.312;2022-08-20T07:27:20;145460.06;;;29.42;48.85
788;BME280;16074;42.708;23.312;2022-08-20T07:29:50;145559.19;;;29.83;48.56
788;BME280;16074;42.708;23.312;2022-08-20T07:32:49;145640.03;;;30.16;47.18
788;BME280;16074;42.708;23.312;2022-08-20T07:35:18;145669.41;;;30.28;45.66
788;BME280;16074;42.708;23.312;2022-08-20T07:37:50;145750.25;;;30.60;45.16
788;BME280;16074;42.708;23.312;2022-08-20T07:40:23;145720.88;;;30.49;44.50
788;BME280;16074;42.708;23.312;2022-08-20T07:42:53;145811.53;;;30.85;44.71
788;BME280;16074;42.708;23.312;2022-08-20T07:45:23;145782.13;;;30.73;44.40
788;BME280;16074;42.708;23.312;2022-08-20T07:47:53;145866.69;;;31.08;44.76
788;BME280;16074;42.708;23.312;2022-08-20T07:50:24;145915.72;;;31.28;43.48
788;BME280;16074;42.708;23.312;2022-08-20T07:52:53;145858.09;;;31.04;43.87
788;BME280;16074;42.708;23.312;2022-08-20T07:55:21;145875.31;;;31.11;43.71
788;BME280;16074;42.708;23.312;2022-08-20T07:57:50;145908.38;;;31.25;43.60
788;BME280;16074;42.708;23.312;2022-08-20T08:00:21;145898.56;;;31.21;43.91
788;BME280;16074;42.708;23.312;2022-08-20T08:02:49;145904.69;;;31.23;43.66
788;BME280;16074;42.708;23.312;2022-08-20T08:05:19;145902.22;;;31.22;43.54
788;BME280;16074;42.708;23.312;2022-08-20T08:07:47;145892.41;;;31.18;43.50
788;BME280;16074;42.708;23.312;2022-08-20T08:10:19;145848.28;;;31.00;43.69
788;BME280;16074;42.708;23.312;2022-08-20T08:12:51;145921.84;;;31.30;43.51
788;BME280;16074;42.708;23.312;2022-08-20T08:15:24;145952.50;;;31.43;43.14
788;BME280;16074;42.708;23.312;2022-08-20T08:17:55;146005.25;;;31.64;43.06
788;BME280;16074;42.708;23.312;2022-08-20T08:20:28;146037.09;;;31.77;42.32
788;BME280;16074;42.708;23.312;2022-08-20T08:22:57;146075.13;;;31.92;42.19
788;BME280;16074;42.708;23.312;2022-08-20T08:25:25;146119.22;;;32.10;41.82
788;BME280;16074;42.708;23.312;2022-08-20T08:27:53;146176.91;;;32.34;41.23
788;BME280;16074;42.708;23.312;2022-08-20T08:30:21;146181.81;;;32.36;41.30
788;BME280;16074;42.708;23.312;2022-08-20T08:32:49;146259.13;;;32.67;40.69
788;BME280;16074;42.708;23.312;2022-08-20T08:35:37;146321.69;;;32.93;40.58
788;BME280;16074;42.708;23.312;2022-08-20T08:38:07;146326.59;;;32.95;39.99
788;BME280;16074;42.708;23.312;2022-08-20T08:40:40;146324.13;;;32.94;39.94
788;BME280;16074;42.708;23.312;2022-08-20T08:43:10;146374.50;;;33.14;39.85
788;BME280;16074;42.708;23.312;2022-08-20T08:45:44;146491.09;;;33.61;39.35
788;BME280;16074;42.708;23.312;2022-08-20T08:48:15;146525.53;;;33.75;38.23
788;BME280;16074;42.708;23.312;2022-08-20T08:50:48;146551.28;;;33.86;38.47
788;BME280;16074;42.708;23.312;2022-08-20T08:53:24;146558.66;;;33.89;38.31
788;BME280;16074;42.708;23.312;2022-08-20T08:55:53;146582.00;;;33.98;38.72
788;BME280;16074;42.708;23.312;2022-08-20T08:58:21;146643.44;;;34.23;38.21
788;BME280;16074;42.708;23.312;2022-08-20T09:00:49;146672.91;;;34.35;36.94
788;BME280;16074;42.708;23.312;2022-08-20T09:03:25;146648.34;;;34.25;37.63
788;BME280;16074;42.708;23.312;2022-08-20T09:05:58;146653.25;;;34.27;37.27
788;BME280;16074;42.708;23.312;2022-08-20T09:08:32;146634.84;;;34.20;37.48
788;BME280;16074;42.708;23.312;2022-08-20T09:11:05;146615.16;;;34.12;37.33
788;BME280;16074;42.708;23.312;2022-08-20T09:13:34;146616.34;;;34.12;37.57
788;BME280;16074;42.708;23.312;2022-08-20T09:16:03;146605.31;;;34.08;37.04
788;BME280;16074;42.708;23.312;2022-08-20T09:18:31;146663.09;;;34.31;37.22
788;BME280;16074;42.708;23.312;2022-08-20T09:21:01;146742.97;;;34.63;37.03
788;BME280;16074;42.708;23.312;2022-08-20T09:23:29;146838.78;;;35.02;36.90
788;BME280;16074;42.708;23.312;2022-08-20T09:25:57;146923.63;;;35.37;35.62
788;BME280;16074;42.708;23.312;2022-08-20T09:28:25;146962.97;;;35.53;34.67
788;BME280;16074;42.708;23.312;2022-08-20T09:31:01;147038.00;;;35.83;34.62
788;BME280;16074;42.708;23.312;2022-08-20T09:33:32;147099.50;;;36.08;34.26
788;BME280;16074;42.708;23.312;2022-08-20T09:36:01;147211.47;;;36.53;33.81
788;BME280;16074;42.708;23.312;2022-08-20T09:38:50;147221.31;;;36.57;33.27
788;BME280;16074;42.708;23.312;2022-08-20T09:41:18;147324.69;;;36.99;32.92
788;BME280;16074;42.708;23.312;2022-08-20T09:43:46;147330.84;;;37.02;33.02
788;BME280;16074;42.708;23.312;2022-08-20T09:46:14;147295.09;;;36.87;33.01
788;BME280;16074;42.708;23.312;2022-08-20T09:48:42;147298.81;;;36.89;32.61
788;BME280;16074;42.708;23.312;2022-08-20T09:51:12;147335.78;;;37.03;32.89
788;BME280;16074;42.708;23.312;2022-08-20T09:53:41;147387.44;;;37.24;32.33
788;BME280;16074;42.708;23.312;2022-08-20T09:56:09;147386.22;;;37.24;31.42
788;BME280;16074;42.708;23.312;2022-08-20T09:58:45;147396.06;;;37.28;31.81
788;BME280;16074;42.708;23.312;2022-08-20T10:01:17;147505.63;;;37.72;31.89
788;BME280;16074;42.708;23.312;2022-08-20T10:03:47;147577.09;;;38.01;30.53
788;BME280;16074;42.708;23.312;2022-08-20T10:06:18;147612.81;;;38.16;30.25
788;BME280;16074;42.708;23.312;2022-08-20T10:08:47;147605.41;;;38.13;30.17
788;BME280;16074;42.708;23.312;2022-08-20T10:11:16;147607.88;;;38.14;29.99
788;BME280;16074;42.708;23.312;2022-08-20T10:13:45;147554.94;;;37.92;30.31
788;BME280;16074;42.708;23.312;2022-08-20T10:16:13;147398.53;;;37.29;31.09
788;BME280;16074;42.708;23.312;2022-08-20T10:18:41;147567.25;;;37.97;30.61
788;BME280;16074;42.708;23.312;2022-08-20T10:21:09;147621.44;;;38.19;30.29
788;BME280;16074;42.708;23.312;2022-08-20T10:23:38;147570.94;;;37.99;30.56
788;BME280;16074;42.708;23.312;2022-08-20T10:26:07;147594.34;;;38.08;30.30
788;BME280;16074;42.708;23.312;2022-08-20T10:28:35;147623.91;;;38.20;30.13
788;BME280;16074;42.708;23.312;2022-08-20T10:31:04;147727.41;;;38.62;29.51
788;BME280;16074;42.708;23.312;2022-08-20T10:33:34;147811.19;;;38.96;29.15
788;BME280;16074;42.708;23.312;2022-08-20T10:36:05;147901.19;;;39.32;28.11
788;BME280;16074;42.708;23.312;2022-08-20T10:38:33;148007.22;;;39.75;28.41
788;BME280;16074;42.708;23.312;2022-08-20T10:41:04;148118.25;;;40.20;27.18
788;BME280;16074;42.708;23.312;2022-08-20T10:43:32;148245.28;;;40.71;27.48
788;BME280;16074;42.708;23.312;2022-08-20T10:46:01;148379.88;;;41.25;26.81
788;BME280;16074;42.708;23.312;2022-08-20T10:48:30;148425.53;;;41.44;26.01
788;BME280;16074;42.708;23.312;2022-08-20T10:50:58;148374.94;;;41.23;26.16
788;BME280;16074;42.708;23.312;2022-08-20T10:53:26;148398.38;;;41.33;26.47
788;BME280;16074;42.708;23.312;2022-08-20T10:55:55;148346.47;;;41.12;26.10
788;BME280;16074;42.708;23.312;2022-08-20T10:58:25;148287.28;;;40.88;26.44
788;BME280;16074;42.708;23.312;2022-08-20T11:01:05;148203.34;;;40.54;26.89
788;BME280;16074;42.708;23.312;2022-08-20T11:03:34;148194.72;;;40.51;27.09
788;BME280;16074;42.708;23.312;2022-08-20T11:06:02;148047.94;;;39.91;27.44
788;BME280;16074;42.708;23.312;2022-08-20T11:08:30;148054.06;;;39.94;27.64
788;BME280;16074;42.708;23.312;2022-08-20T11:11:02;148036.81;;;39.87;28.41
788;BME280;16074;42.708;23.312;2022-08-20T11:13:32;147994.88;;;39.70;27.92
788;BME280;16074;42.708;23.312;2022-08-20T11:16:02;148004.75;;;39.74;27.92
788;BME280;16074;42.708;23.312;2022-08-20T11:18:30;148020.81;;;39.80;28.23
788;BME280;16074;42.708;23.312;2022-08-20T11:20:59;148104.66;;;40.14;28.25
788;BME280;16074;42.708;23.312;2022-08-20T11:23:27;148212.00;;;40.58;27.10
788;BME280;16074;42.708;23.312;2022-08-20T11:25:56;148388.50;;;41.29;26.45
788;BME280;16074;42.708;23.312;2022-08-20T11:28:25;148431.66;;;41.46;25.60
788;BME280;16074;42.708;23.312;2022-08-20T11:30:59;148582.34;;;42.07;25.26
788;BME280;16074;42.708;23.312;2022-08-20T11:33:28;148632.94;;;42.27;24.90
788;BME280;16074;42.708;23.312;2022-08-20T11:35:56;148582.34;;;42.07;25.36
788;BME280;16074;42.708;23.312;2022-08-20T11:38:24;148552.66;;;41.95;25.07
788;BME280;16074;42.708;23.312;2022-08-20T11:40:52;148502.06;;;41.75;24.78
788;BME280;16074;42.708;23.312;2022-08-20T11:43:21;148457.63;;;41.57;25.12
788;BME280;16074;42.708;23.312;2022-08-20T11:45:54;148390.97;;;41.30;25.48
788;BME280;16074;42.708;23.312;2022-08-20T11:48:24;148172.53;;;40.42;26.35
788;BME280;16074;42.708;23.312;2022-08-20T11:50:52;148151.53;;;40.33;26.90
788;BME280;16074;42.708;23.312;2022-08-20T11:53:20;148071.38;;;40.01;27.48
788;BME280;16074;42.708;23.312;2022-08-20T11:55:48;147928.31;;;39.43;27.88
788;BME280;16074;42.708;23.312;2022-08-20T11:58:17;147702.75;;;38.52;31.29
788;BME280;16074;42.708;23.312;2022-08-20T12:00:45;147636.19;;;38.25;31.88
788;BME280;16074;42.708;23.312;2022-08-20T12:03:13;147557.41;;;37.93;30.86
788;BME280;16074;42.708;23.312;2022-08-20T12:05:44;147452.72;;;37.51;36.31
788;BME280;16074;42.708;23.312;2022-08-20T12:08:15;147376.38;;;37.20;34.50
788;BME280;16074;42.708;23.312;2022-08-20T12:10:53;147211.47;;;36.53;35.33
788;BME280;16074;42.708;23.312;2022-08-20T12:13:22;147191.72;;;36.45;34.79
788;BME280;16074;42.708;23.312;2022-08-20T12:16:10;147178.22;;;36.40;35.23
788;BME280;16074;42.708;23.312;2022-08-20T12:18:38;147168.38;;;36.36;35.00
788;BME280;16074;42.708;23.312;2022-08-20T12:21:07;147143.78;;;36.26;33.74
788;BME280;16074;42.708;23.312;2022-08-20T12:23:36;147110.59;;;36.12;33.85
788;BME280;16074;42.708;23.312;2022-08-20T12:26:04;147104.41;;;36.10;33.79
788;BME280;16074;42.708;23.312;2022-08-20T12:28:32;147074.84;;;35.98;33.60
788;BME280;16074;42.708;23.312;2022-08-20T12:31:00;147051.50;;;35.88;33.98
788;BME280;16074;42.708;23.312;2022-08-20T12:33:29;147012.16;;;35.72;34.38
788;BME280;16074;42.708;23.312;2022-08-20T12:35:57;146993.72;;;35.65;41.93
788;BME280;16074;42.708;23.312;2022-08-20T12:38:26;146856.00;;;35.09;48.50
788;BME280;16074;42.708;23.312;2022-08-20T12:40:54;146633.59;;;34.19;43.36
788;BME280;16074;42.708;23.312;2022-08-20T12:43:23;146410.13;;;33.28;66.57
788;BME280;16074;42.708;23.312;2022-08-20T12:45:51;146180.59;;;32.35;69.72
788;BME280;16074;42.708;23.312;2022-08-20T12:48:19;145990.50;;;31.58;72.98
788;BME280;16074;42.708;23.312;2022-08-20T12:50:47;145764.97;;;30.66;83.00
788;BME280;16074;42.708;23.312;2022-08-20T12:53:18;145419.63;;;29.26;77.77
788;BME280;16074;42.708;23.312;2022-08-20T12:55:48;144974.44;;;27.45;80.79
788;BME280;16074;42.708;23.312;2022-08-20T12:58:16;144710.56;;;26.37;90.12
788;BME280;16074;42.708;23.312;2022-08-20T13:00:45;144529.88;;;25.63;100.00
788;BME280;16074;42.708;23.312;2022-08-20T13:03:17;140693.94;;;25.17;100.00
788;BME280;16074;42.708;23.312;2022-08-20T13:05:46;141764.53;;;24.69;100.00
788;BME280;16074;42.708;23.312;2022-08-20T13:08:14;132939.03;;;24.28;100.00
788;BME280;16074;42.708;23.312;2022-08-20T13:10:45;108983.16;;;23.94;100.00
788;BME280;16074;42.708;23.312;2022-08-20T13:13:16;100564.53;;;23.74;100.00
788;BME280;16074;42.708;23.312;2022-08-20T13:15:47;72823.53;;;23.87;100.00
788;BME280;16074;42.708;23.312;2022-08-20T13:18:18;58510.50;;;24.46;100.00